Station History

Weather Underground - logo

Station Historical Data
Daily Summary for December 7, 2017 Units:  English    Metric   Both
« Previous Day
Next Day »
Daily Weekly Monthly Yearly Custom
  High: Low: Average:
Temperature: 61.2 °F 31.7 °F 43.2 °F
Dew Point: 38.6 °F 29.1 °F 34.3 °F
Humidity: 93 % 40 % 74 %
Wind Speed: 3.5 mph 0.0 mph 0.4 mph
Wind Gust: 3.5 mph - -
Wind:- - South
Pressure: 30.50 in 30.35 in -
Precipitation: 0.00 in    
Historical Graphs
 
 
Tabular Data for December 7, 2017
Time Temperature Dew Point Pressure Wind Wind Speed Wind Gust Humidity Rainfall Rate (Hourly)
00:01 35.9 °F 32.7 °F 30.35 in Calm     88 % 0.00 in
00:06 35.7 °F 32.5 °F 30.36 in Calm     88 % 0.00 in
00:11 35.6 °F 32.7 °F 30.36 in Calm     89 % 0.00 in
00:16 35.5 °F 32.6 °F 30.36 in Calm     89 % 0.00 in
00:21 35.4 °F 32.5 °F 30.37 in Calm     89 % 0.00 in
00:26 35.3 °F 32.4 °F 30.37 in Calm     89 % 0.00 in
00:31 35.2 °F 32.6 °F 30.37 in Calm     90 % 0.00 in
00:36 35.1 °F 32.5 °F 30.37 in Calm     90 % 0.00 in
00:41 35.2 °F 32.6 °F 30.38 in Calm     90 % 0.00 in
00:46 35.1 °F 32.2 °F 30.38 in ESE 1.2 mph 1.2 mph 89 % 0.00 in
00:51 35.1 °F 32.2 °F 30.38 in ESE 1.2 mph   89 % 0.00 in
00:56 35.1 °F 32.2 °F 30.38 in Calm     89 % 0.00 in
01:01 35.2 °F 32.0 °F 30.38 in Calm     88 % 0.00 in
01:06 35.1 °F 31.9 °F 30.38 in Calm   0.1 mph 88 % 0.00 in
01:11 35.1 °F 31.9 °F 30.38 in Calm     88 % 0.00 in
01:16 35.1 °F 31.9 °F 30.38 in Calm     88 % 0.00 in
01:21 35.1 °F 31.9 °F 30.38 in Calm     88 % 0.00 in
01:26 35.0 °F 31.8 °F 30.38 in Calm     88 % 0.00 in
01:31 35.1 °F 31.9 °F 30.38 in Calm     88 % 0.00 in
01:36 35.1 °F 31.9 °F 30.38 in Calm     88 % 0.00 in
01:41 35.1 °F 31.9 °F 30.39 in Calm     88 % 0.00 in
01:46 35.1 °F 31.9 °F 30.39 in ESE 1.2 mph 1.2 mph 88 % 0.00 in
01:51 35.3 °F 32.1 °F 30.39 in Calm     88 % 0.00 in
01:56 35.2 °F 32.0 °F 30.39 in Calm     88 % 0.00 in
02:01 35.1 °F 31.9 °F 30.39 in Calm     88 % 0.00 in
02:06 35.3 °F 32.1 °F 30.39 in Calm     88 % 0.00 in
02:12 35.2 °F 32.0 °F 30.39 in Calm     88 % 0.00 in
02:16 35.1 °F 31.9 °F 30.39 in Calm     88 % 0.00 in
02:22 34.8 °F 31.6 °F 30.39 in Calm     88 % 0.00 in
02:27 34.5 °F 31.3 °F 30.39 in Calm     88 % 0.00 in
02:32 34.2 °F 31.3 °F 30.39 in Calm     89 % 0.00 in
02:37 34.0 °F 31.1 °F 30.39 in Calm     89 % 0.00 in
02:42 33.7 °F 30.8 °F 30.39 in Calm     89 % 0.00 in
02:47 33.6 °F 31.0 °F 30.39 in Calm     90 % 0.00 in
02:52 33.6 °F 31.0 °F 30.39 in Calm     90 % 0.00 in
02:57 33.7 °F 31.1 °F 30.39 in Calm     90 % 0.00 in
03:02 33.7 °F 31.1 °F 30.39 in Calm     90 % 0.00 in
03:07 33.9 °F 31.6 °F 30.39 in Calm     91 % 0.00 in
03:12 34.1 °F 31.7 °F 30.39 in Calm     91 % 0.00 in
03:17 34.1 °F 31.5 °F 30.39 in Calm     90 % 0.00 in
03:22 34.1 °F 31.5 °F 30.40 in Calm     90 % 0.00 in
03:27 33.9 °F 31.3 °F 30.40 in Calm     90 % 0.00 in
03:32 33.6 °F 31.0 °F 30.40 in Calm     90 % 0.00 in
03:37 33.3 °F 30.7 °F 30.40 in Calm     90 % 0.00 in
03:42 33.3 °F 30.7 °F 30.40 in Calm     90 % 0.00 in
03:47 33.0 °F 30.4 °F 30.41 in Calm     90 % 0.00 in
03:52 32.8 °F 30.5 °F 30.41 in Calm     91 % 0.00 in
03:57 32.7 °F 30.4 °F 30.41 in Calm     91 % 0.00 in
04:02 32.6 °F 30.3 °F 30.42 in Calm     91 % 0.00 in
04:07 32.6 °F 30.3 °F 30.42 in Calm     91 % 0.00 in
04:12 32.4 °F 30.1 °F 30.42 in Calm     91 % 0.00 in
04:17 32.2 °F 29.9 °F 30.42 in Calm     91 % 0.00 in
04:22 32.2 °F 29.9 °F 30.42 in Calm     91 % 0.00 in
04:27 32.2 °F 29.9 °F 30.43 in Calm     91 % 0.00 in
04:32 32.3 °F 30.2 °F 30.43 in Calm     92 % 0.00 in
04:47 32.8 °F 30.7 °F 30.43 in Calm     92 % 0.00 in
04:57 32.8 °F 30.5 °F 30.43 in Calm     91 % 0.00 in
05:02 32.8 °F 30.5 °F 30.43 in Calm     91 % 0.00 in
05:03 32.8 °F 30.5 °F 30.43 in Calm     91 % 0.00 in
05:08 32.9 °F 30.6 °F 30.44 in Calm     91 % 0.00 in
05:13 33.2 °F 30.9 °F 30.44 in Calm     91 % 0.00 in
05:18 33.4 °F 31.1 °F 30.44 in ESE 1.2 mph 1.2 mph 91 % 0.00 in
05:23 33.8 °F 31.5 °F 30.44 in Calm     91 % 0.00 in
05:29 34.2 °F 31.6 °F 30.45 in Calm     90 % 0.00 in
05:34 34.2 °F 31.6 °F 30.45 in Calm     90 % 0.00 in
05:38 34.3 °F 31.4 °F 30.44 in Calm     89 % 0.00 in
05:44 34.3 °F 31.4 °F 30.44 in Calm     89 % 0.00 in
05:49 34.7 °F 31.8 °F 30.45 in ESE 1.2 mph 1.2 mph 89 % 0.00 in
05:54 34.8 °F 31.3 °F 30.45 in Calm     87 % 0.00 in
05:59 34.4 °F 30.9 °F 30.45 in Calm   0.1 mph 87 % 0.00 in
06:04 33.7 °F 30.2 °F 30.46 in Calm     87 % 0.00 in
06:09 33.2 °F 30.0 °F 30.46 in Calm     88 % 0.00 in
06:14 32.7 °F 29.5 °F 30.45 in Calm     88 % 0.00 in
06:19 32.4 °F 29.5 °F 30.46 in Calm     89 % 0.00 in
06:24 32.1 °F 29.2 °F 30.46 in Calm     89 % 0.00 in
06:29 31.9 °F 29.3 °F 30.46 in Calm     90 % 0.00 in
06:34 31.7 °F 29.1 °F 30.46 in Calm     90 % 0.00 in
06:39 31.8 °F 29.5 °F 30.46 in Calm     91 % 0.00 in
06:44 31.9 °F 29.6 °F 30.46 in Calm     91 % 0.00 in
06:49 31.9 °F 29.6 °F 30.46 in Calm     91 % 0.00 in
06:54 31.8 °F 29.2 °F 30.45 in Calm     90 % 0.00 in
06:59 32.0 °F 29.7 °F 30.46 in Calm     91 % 0.00 in
07:04 32.0 °F 29.7 °F 30.46 in Calm     91 % 0.00 in
07:09 31.9 °F 29.6 °F 30.46 in Calm     91 % 0.00 in
07:14 32.0 °F 29.7 °F 30.46 in Calm     91 % 0.00 in
07:19 32.2 °F 30.1 °F 30.46 in Calm     92 % 0.00 in
07:24 32.3 °F 30.2 °F 30.47 in ESE 1.2 mph   92 % 0.00 in
07:29 32.3 °F 30.2 °F 30.47 in Calm     92 % 0.00 in
07:34 32.3 °F 30.2 °F 30.47 in Calm     92 % 0.00 in
07:39 32.5 °F 30.4 °F 30.47 in Calm     92 % 0.00 in
07:44 32.8 °F 30.7 °F 30.47 in Calm     92 % 0.00 in
07:49 33.2 °F 31.1 °F 30.48 in ESE 1.2 mph 1.2 mph 92 % 0.00 in
07:54 34.2 °F 32.4 °F 30.48 in ESE 1.0 mph   93 % 0.00 in
07:59 35.3 °F 32.9 °F 30.48 in South 1.2 mph   91 % 0.00 in
08:04 36.3 °F 33.4 °F 30.48 in Calm   0.1 mph 89 % 0.00 in
08:09 37.1 °F 33.6 °F 30.49 in SSE 1.0 mph 1.0 mph 87 % 0.00 in
08:14 37.7 °F 33.6 °F 30.49 in SSE 2.3 mph 2.3 mph 85 % 0.00 in
08:19 38.4 °F 34.0 °F 30.49 in Calm   0.1 mph 84 % 0.00 in
08:24 38.9 °F 33.9 °F 30.49 in Calm     82 % 0.00 in
08:29 39.5 °F 34.5 °F 30.49 in SSE 1.2 mph 1.2 mph 82 % 0.00 in
08:34 40.5 °F 34.8 °F 30.49 in ESE 1.0 mph 1.0 mph 80 % 0.00 in
08:39 41.2 °F 34.5 °F 30.50 in SSE 2.3 mph 2.3 mph 77 % 0.00 in
08:45 41.5 °F 34.5 °F 30.50 in SSE 1.2 mph   76 % 0.00 in
08:50 41.8 °F 34.5 °F 30.50 in ESE 1.0 mph 1.0 mph 75 % 0.00 in
08:55 41.8 °F 34.5 °F 30.50 in SE 2.0 mph 2.0 mph 75 % 0.00 in
09:00 41.9 °F 34.6 °F 30.50 in East 3.5 mph 3.5 mph 75 % 0.00 in
09:05 42.6 °F 35.2 °F 30.50 in SE 1.2 mph   75 % 0.00 in
09:10 43.2 °F 35.1 °F 30.50 in Calm     73 % 0.00 in
09:15 43.9 °F 35.8 °F 30.50 in SSE 1.2 mph   73 % 0.00 in
09:20 44.5 °F 35.3 °F 30.50 in SSE 3.5 mph 3.5 mph 70 % 0.00 in
09:25 45.1 °F 35.2 °F 30.50 in SE 2.3 mph 2.3 mph 68 % 0.00 in
09:30 45.6 °F 34.9 °F 30.50 in South 2.3 mph 2.3 mph 66 % 0.00 in
09:35 46.1 °F 34.2 °F 30.50 in SSE 2.3 mph 2.3 mph 63 % 0.00 in
09:40 46.4 °F 34.1 °F 30.50 in South 3.0 mph 3.0 mph 62 % 0.00 in
09:45 46.6 °F 33.9 °F 30.50 in SSE 2.3 mph 2.3 mph 61 % 0.00 in
09:50 47.2 °F 34.4 °F 30.49 in SE 3.5 mph 3.5 mph 61 % 0.00 in
09:55 47.8 °F 34.2 °F 30.49 in South 3.5 mph 3.5 mph 59 % 0.00 in
10:00 48.3 °F 34.6 °F 30.49 in Calm   0.1 mph 59 % 0.00 in
10:05 48.9 °F 34.8 °F 30.49 in SSE 1.2 mph 1.2 mph 58 % 0.00 in
10:10 49.4 °F 35.2 °F 30.49 in SSE 2.3 mph 2.3 mph 58 % 0.00 in
10:15 49.9 °F 34.8 °F 30.49 in SE 1.2 mph 1.2 mph 56 % 0.00 in
10:20 50.4 °F 34.8 °F 30.49 in Calm   0.6 mph 55 % 0.00 in
10:25 51.0 °F 35.8 °F 30.49 in SSW 1.2 mph   56 % 0.00 in
10:30 51.6 °F 35.0 °F 30.49 in WSW 1.2 mph   53 % 0.00 in
10:40 52.5 °F 35.8 °F 30.48 in ESE 1.2 mph 1.2 mph 53 % 0.00 in
10:45 53.0 °F 36.3 °F 30.48 in SSE 2.3 mph 2.3 mph 53 % 0.00 in
10:50 53.6 °F 36.4 °F 30.47 in Calm     52 % 0.00 in
10:55 53.9 °F 37.1 °F 30.47 in Calm   0.5 mph 53 % 0.00 in
11:00 54.4 °F 36.1 °F 30.47 in NE 2.3 mph 2.3 mph 50 % 0.00 in
11:05 54.7 °F 36.4 °F 30.46 in East 2.3 mph 2.3 mph 50 % 0.00 in
11:26 55.5 °F 36.6 °F 30.45 in SSE 3.5 mph 3.5 mph 49 % 0.00 in
11:36 56.2 °F 36.8 °F 30.45 in SE 2.3 mph 2.3 mph 48 % 0.00 in
11:41 55.9 °F 36.5 °F 30.45 in North 3.5 mph 3.5 mph 48 % 0.00 in
11:46 56.2 °F 37.8 °F 30.44 in Calm     50 % 0.00 in
11:51 56.7 °F 37.2 °F 30.44 in SSE 1.2 mph 1.5 mph 48 % 0.00 in
11:56 56.8 °F 37.3 °F 30.44 in SSE 1.2 mph   48 % 0.00 in
12:16 57.4 °F 36.8 °F 30.44 in NW 2.3 mph 2.3 mph 46 % 0.00 in
12:21 57.5 °F 37.4 °F 30.43 in NW 2.0 mph 2.0 mph 47 % 0.00 in
12:26 57.7 °F 37.0 °F 30.43 in Calm     46 % 0.00 in
12:31 58.2 °F 36.9 °F 30.43 in NNW 1.2 mph 1.2 mph 45 % 0.00 in
12:36 58.0 °F 37.3 °F 30.43 in SE 1.0 mph   46 % 0.00 in
12:41 58.4 °F 37.1 °F 30.42 in Calm     45 % 0.00 in
12:46 58.7 °F 38.0 °F 30.42 in SE 1.2 mph 1.2 mph 46 % 0.00 in
12:51 58.8 °F 37.5 °F 30.42 in SSE 1.2 mph 1.2 mph 45 % 0.00 in
13:01 59.2 °F 37.3 °F 30.41 in Calm     44 % 0.00 in
13:11 59.0 °F 36.5 °F 30.40 in WNW 1.2 mph 1.2 mph 43 % 0.00 in
13:21 58.8 °F 36.9 °F 30.40 in Calm     44 % 0.00 in
13:26 59.1 °F 36.6 °F 30.40 in NW 1.2 mph 1.2 mph 43 % 0.00 in
13:27 59.1 °F 36.6 °F 30.40 in Calm     43 % 0.00 in
13:32 59.4 °F 36.9 °F 30.40 in Calm     43 % 0.00 in
13:37 59.7 °F 37.7 °F 30.40 in SE 1.2 mph 1.2 mph 44 % 0.00 in
13:42 60.4 °F 37.2 °F 30.39 in Calm     42 % 0.00 in
13:52 61.0 °F 38.3 °F 30.39 in Calm     43 % 0.00 in
14:02 61.2 °F 36.7 °F 30.39 in WNW 3.0 mph 3.0 mph 40 % 0.00 in
14:12 60.8 °F 36.9 °F 30.39 in West 1.2 mph   41 % 0.00 in
14:22 60.9 °F 37.0 °F 30.39 in SE 1.0 mph   41 % 0.00 in
14:27 60.9 °F 37.0 °F 30.39 in Calm     41 % 0.00 in
14:32 60.8 °F 37.5 °F 30.38 in SE 1.2 mph   42 % 0.00 in
14:37 60.7 °F 36.8 °F 30.38 in West 1.2 mph   41 % 0.00 in
14:42 60.6 °F 36.8 °F 30.38 in West 1.2 mph 1.2 mph 41 % 0.00 in
14:47 60.5 °F 36.7 °F 30.38 in Calm     41 % 0.00 in
14:52 60.4 °F 37.2 °F 30.38 in Calm     42 % 0.00 in
15:02 60.5 °F 36.7 °F 30.38 in Calm     41 % 0.00 in
15:07 60.4 °F 37.2 °F 30.38 in WNW 1.2 mph   42 % 0.00 in
15:13 60.3 °F 35.9 °F 30.38 in WNW 1.2 mph   40 % 0.00 in
15:18 60.2 °F 36.4 °F 30.38 in Calm     41 % 0.00 in
15:23 60.0 °F 36.8 °F 30.38 in Calm     42 % 0.00 in
15:28 60.3 °F 36.5 °F 30.38 in NNW 2.3 mph 2.3 mph 41 % 0.00 in
15:33 60.4 °F 36.6 °F 30.38 in Calm     41 % 0.00 in
15:38 60.3 °F 36.5 °F 30.38 in Calm     41 % 0.00 in
15:40 60.2 °F 37.0 °F 30.38 in Calm     42 % 0.00 in
15:45 60.2 °F 37.0 °F 30.38 in NW 1.2 mph 1.2 mph 42 % 0.00 in
15:50 60.1 °F 37.5 °F 30.38 in Calm     43 % 0.00 in
15:55 60.0 °F 36.8 °F 30.39 in WNW 1.2 mph   42 % 0.00 in
16:00 59.9 °F 37.3 °F 30.38 in Calm     43 % 0.00 in
16:05 59.6 °F 38.2 °F 30.38 in Calm     45 % 0.00 in
16:10 58.9 °F 37.6 °F 30.39 in Calm     45 % 0.00 in
16:15 58.3 °F 37.6 °F 30.39 in Calm     46 % 0.00 in
16:20 57.9 °F 38.3 °F 30.39 in Calm     48 % 0.00 in
16:25 57.4 °F 38.4 °F 30.39 in Calm     49 % 0.00 in
16:30 56.5 °F 38.6 °F 30.40 in Calm     51 % 0.00 in
16:45 54.2 °F 38.4 °F 30.40 in Calm     55 % 0.00 in
16:51 53.6 °F 38.3 °F 30.40 in Calm     56 % 0.00 in
16:56 53.2 °F 38.4 °F 30.41 in Calm     57 % 0.00 in
17:06 52.0 °F 38.5 °F 30.41 in Calm     60 % 0.00 in
17:11 51.4 °F 38.4 °F 30.41 in Calm     61 % 0.00 in
17:16 50.7 °F 37.7 °F 30.42 in Calm     61 % 0.00 in
17:21 50.5 °F 38.4 °F 30.42 in Calm     63 % 0.00 in
17:26 50.1 °F 38.0 °F 30.42 in Calm     63 % 0.00 in
17:31 49.7 °F 38.4 °F 30.42 in Calm     65 % 0.00 in
17:36 49.4 °F 38.1 °F 30.42 in Calm     65 % 0.00 in
17:41 49.0 °F 38.1 °F 30.42 in Calm     66 % 0.00 in
17:46 48.7 °F 37.8 °F 30.42 in Calm     66 % 0.00 in
17:51 48.4 °F 38.3 °F 30.42 in Calm     68 % 0.00 in
17:56 48.1 °F 38.4 °F 30.42 in Calm     69 % 0.00 in
18:01 47.9 °F 38.2 °F 30.42 in Calm     69 % 0.00 in
18:06 47.7 °F 38.0 °F 30.42 in Calm     69 % 0.00 in
18:16 47.2 °F 37.9 °F 30.42 in Calm     70 % 0.00 in
18:21 47.2 °F 37.9 °F 30.43 in Calm     70 % 0.00 in
18:26 47.1 °F 38.2 °F 30.42 in Calm     71 % 0.00 in
18:41 47.1 °F 37.8 °F 30.43 in Calm     70 % 0.00 in
18:46 47.6 °F 37.9 °F 30.43 in Calm     69 % 0.00 in
18:51 48.1 °F 37.7 °F 30.43 in WNW 1.2 mph 1.2 mph 67 % 0.00 in
18:56 48.4 °F 37.6 °F 30.43 in Calm     66 % 0.00 in
19:01 48.6 °F 37.7 °F 30.43 in Calm     66 % 0.00 in
19:13 47.7 °F 37.7 °F 30.43 in Calm     68 % 0.00 in
19:21 47.0 °F 37.0 °F 30.44 in Calm     68 % 0.00 in
19:26 46.7 °F 37.1 °F 30.44 in Calm     69 % 0.00 in
19:28 46.7 °F 37.1 °F 30.44 in Calm     69 % 0.00 in
19:33 46.5 °F 37.2 °F 30.44 in Calm     70 % 0.00 in
19:38 46.3 °F 37.4 °F 30.44 in Calm     71 % 0.00 in
19:43 45.7 °F 37.2 °F 30.44 in Calm     72 % 0.00 in
19:48 45.1 °F 37.0 °F 30.44 in Calm     73 % 0.00 in
19:53 44.5 °F 36.7 °F 30.44 in Calm     74 % 0.00 in
19:58 44.1 °F 37.0 °F 30.45 in Calm     76 % 0.00 in
20:03 43.7 °F 37.0 °F 30.45 in Calm     77 % 0.00 in
20:08 43.1 °F 36.7 °F 30.45 in Calm     78 % 0.00 in
20:13 42.6 °F 36.9 °F 30.46 in Calm     80 % 0.00 in
20:18 42.2 °F 36.5 °F 30.46 in Calm     80 % 0.00 in
20:23 41.9 °F 36.5 °F 30.46 in Calm     81 % 0.00 in
20:28 41.5 °F 36.4 °F 30.46 in Calm     82 % 0.00 in
20:33 41.5 °F 36.4 °F 30.46 in Calm     82 % 0.00 in
20:34 41.6 °F 36.5 °F 30.46 in Calm     82 % 0.00 in
20:39 41.5 °F 36.4 °F 30.46 in Calm     82 % 0.00 in
20:44 41.0 °F 35.9 °F 30.47 in Calm     82 % 0.00 in
20:49 40.5 °F 35.4 °F 30.47 in Calm     82 % 0.00 in
20:54 40.1 °F 35.4 °F 30.47 in Calm     83 % 0.00 in
20:59 39.9 °F 35.2 °F 30.47 in Calm     83 % 0.00 in
21:04 39.7 °F 35.0 °F 30.47 in Calm     83 % 0.00 in
21:09 39.6 °F 34.9 °F 30.47 in Calm     83 % 0.00 in
21:14 39.2 °F 34.8 °F 30.48 in Calm     84 % 0.00 in
21:19 39.1 °F 35.0 °F 30.48 in Calm     85 % 0.00 in
21:24 39.2 °F 35.4 °F 30.48 in Calm     86 % 0.00 in
21:29 39.1 °F 35.0 °F 30.48 in Calm     85 % 0.00 in
21:34 39.1 °F 35.0 °F 30.47 in Calm     85 % 0.00 in
21:39 39.2 °F 35.4 °F 30.48 in Calm     86 % 0.00 in
21:44 39.2 °F 35.4 °F 30.48 in Calm     86 % 0.00 in
21:50 39.0 °F 34.9 °F 30.48 in Calm     85 % 0.00 in
21:55 38.8 °F 35.0 °F 30.48 in Calm     86 % 0.00 in
22:00 38.5 °F 34.7 °F 30.48 in Calm     86 % 0.00 in
22:05 38.1 °F 34.6 °F 30.48 in Calm     87 % 0.00 in
22:10 38.0 °F 34.5 °F 30.48 in Calm     87 % 0.00 in
22:15 37.9 °F 34.7 °F 30.49 in Calm     88 % 0.00 in
22:20 38.0 °F 34.8 °F 30.49 in Calm     88 % 0.00 in
22:25 38.0 °F 34.5 °F 30.49 in Calm     87 % 0.00 in
22:35 38.0 °F 34.5 °F 30.49 in Calm     87 % 0.00 in
22:40 38.0 °F 34.2 °F 30.49 in Calm     86 % 0.00 in
22:45 37.9 °F 34.1 °F 30.50 in Calm     86 % 0.00 in
22:50 37.6 °F 33.8 °F 30.50 in Calm     86 % 0.00 in
22:55 37.6 °F 33.8 °F 30.50 in Calm     86 % 0.00 in
23:00 37.5 °F 33.7 °F 30.50 in Calm     86 % 0.00 in
23:05 37.8 °F 34.0 °F 30.50 in Calm     86 % 0.00 in
23:10 38.2 °F 34.1 °F 30.50 in NE 1.2 mph   85 % 0.00 in
23:15 38.3 °F 33.6 °F 30.50 in NE 1.2 mph   83 % 0.00 in
23:20 38.1 °F 33.4 °F 30.50 in NE 1.0 mph   83 % 0.00 in
23:25 38.0 °F 33.3 °F 30.50 in Calm     83 % 0.00 in
23:30 37.9 °F 33.2 °F 30.50 in Calm     83 % 0.00 in
23:35 38.0 °F 33.3 °F 30.50 in Calm     83 % 0.00 in
23:40 38.3 °F 33.3 °F 30.50 in Calm     82 % 0.00 in
23:45 38.5 °F 33.5 °F 30.49 in Calm     82 % 0.00 in
23:50 38.4 °F 33.7 °F 30.50 in Calm     83 % 0.00 in
23:51 38.3 °F 33.3 °F 30.50 in Calm     82 % 0.00 in
23:56 38.2 °F 33.5 °F 30.50 in Calm     83 % 0.00 in
Park Place, Exeter, Tulare County, California, USA
Compliments of Weather Underground - 2.5 mb